Time;durP1;ratioP1;P1;durP2;ratioP2;P2;SDS_P1;SDS_P2;PMS_P1;PMS_P2;Temp;Humidity;BMP_temperature;BMP_pressure;BME280_temperature;BME280_humidity;BME280_pressure;Samples;Min_cycle;Max_cycle;Signal;HPM_P1;HPM_P2
2023/09/17 00:00:40;;;;;;;11.98;8.30;;;;;;;;;;4986137;28;20172;-70
2023/09/17 00:03:05;;;;;;;7.90;7.10;;;;;;;;;;4993613;28;20172;-70
2023/09/17 00:05:34;;;;;;;8.32;7.50;;;;;;;;;;4992002;28;20289;-69
2023/09/17 00:07:59;;;;;;;9.73;7.57;;;;;;;;;;4991391;28;20184;-71
2023/09/17 00:10:25;;;;;;;8.13;7.28;;;;;;;;;;4984278;28;20558;-69
2023/09/17 00:12:55;;;;;;;12.20;7.07;;;;;;;;;;4985088;28;20180;-70
2023/09/17 00:15:20;;;;;;;11.98;7.07;;;;;;;;;;4986853;28;20189;-70
2023/09/17 00:17:45;;;;;;;8.52;7.63;;;;;;;;;;4989602;28;20214;-70
2023/09/17 00:20:11;;;;;;;8.48;7.18;;;;;;;;;;4992139;28;20179;-70
2023/09/17 00:22:37;;;;;;;10.98;6.78;;;;;;;;;;4990106;28;20246;-70
2023/09/17 00:25:04;;;;;;;8.63;6.78;;;;;;;;;;4987593;28;20199;-70
2023/09/17 00:27:29;;;;;;;8.40;7.35;;;;;;;;;;4988205;28;20690;-69
2023/09/17 00:29:54;;;;;;;8.18;6.93;;;;;;;;;;4987189;28;20183;-69
2023/09/17 00:32:20;;;;;;;7.63;6.90;;;;;;;;;;4984755;28;20180;-69
2023/09/17 00:34:45;;;;;;;8.23;7.35;;;;;;;;;;4986550;28;20278;-72
2023/09/17 00:37:10;;;;;;;13.10;7.75;;;;;;;;;;4992544;28;20262;-70
2023/09/17 00:39:35;;;;;;;8.43;7.25;;;;;;;;;;4983316;28;20659;-70
2023/09/17 00:42:01;;;;;;;10.23;7.40;;;;;;;;;;4990071;28;20183;-71
2023/09/17 00:44:26;;;;;;;7.63;6.85;;;;;;;;;;4992746;28;20199;-71
2023/09/17 00:46:51;;;;;;;10.32;7.97;;;;;;;;;;4992172;28;20176;-70
2023/09/17 00:49:16;;;;;;;8.15;7.05;;;;;;;;;;4992142;28;20302;-69
2023/09/17 00:51:42;;;;;;;8.00;7.25;;;;;;;;;;4990827;28;20410;-69
2023/09/17 00:54:09;;;;;;;12.85;8.00;;;;;;;;;;4991242;28;20230;-69
2023/09/17 00:56:34;;;;;;;8.38;7.55;;;;;;;;;;4987423;28;20191;-70
2023/09/17 00:59:00;;;;;;;8.18;7.35;;;;;;;;;;4988594;28;20211;-69
2023/09/17 01:01:25;;;;;;;8.85;7.55;;;;;;;;;;4984468;28;20218;-70
2023/09/17 01:03:51;;;;;;;8.30;7.50;;;;;;;;;;4991168;28;21028;-70
2023/09/17 01:06:16;;;;;;;9.55;7.88;;;;;;;;;;4989460;28;20189;-71
2023/09/17 01:08:42;;;;;;;8.98;7.63;;;;;;;;;;4990905;28;20659;-70
2023/09/17 01:11:09;;;;;;;8.63;7.82;;;;;;;;;;4990008;28;20176;-70
2023/09/17 01:13:39;;;;;;;9.48;8.48;;;;;;;;;;4991636;28;20206;-69
2023/09/17 01:16:05;;;;;;;8.82;7.82;;;;;;;;;;4977165;28;20239;-70
2023/09/17 01:18:31;;;;;;;11.60;8.65;;;;;;;;;;4988624;28;20196;-70
2023/09/17 01:21:04;;;;;;;10.13;8.45;;;;;;;;;;4991421;28;20175;-69
2023/09/17 01:23:30;;;;;;;12.38;8.10;;;;;;;;;;4982125;28;20180;-70
2023/09/17 01:26:06;;;;;;;8.73;7.82;;;;;;;;;;4985839;28;20693;-70
2023/09/17 01:28:31;;;;;;;14.07;8.52;;;;;;;;;;4988334;28;20241;-70
2023/09/17 01:30:57;;;;;;;10.95;8.38;;;;;;;;;;4989256;28;20723;-70
2023/09/17 01:33:22;;;;;;;10.13;7.90;;;;;;;;;;4991966;28;20255;-70
2023/09/17 01:35:47;;;;;;;9.10;7.72;;;;;;;;;;4979528;28;20328;-70
2023/09/17 01:38:14;;;;;;;11.13;8.70;;;;;;;;;;4990605;28;20207;-70
2023/09/17 01:40:41;;;;;;;14.00;8.70;;;;;;;;;;4988507;28;20265;-70
2023/09/17 01:43:06;;;;;;;10.90;8.50;;;;;;;;;;4990993;28;20187;-70
2023/09/17 01:45:32;;;;;;;12.48;8.82;;;;;;;;;;4991410;28;20191;-70
2023/09/17 01:47:57;;;;;;;10.15;8.77;;;;;;;;;;4992264;28;20502;-70
2023/09/17 01:50:24;;;;;;;11.18;8.27;;;;;;;;;;4989526;28;20681;-70
2023/09/17 01:52:50;;;;;;;12.48;9.23;;;;;;;;;;4990470;28;20179;-70
2023/09/17 01:55:15;;;;;;;10.80;9.00;;;;;;;;;;4981519;28;20287;-70
2023/09/17 01:57:42;;;;;;;13.23;9.10;;;;;;;;;;4990407;28;20295;-70
2023/09/17 02:00:19;;;;;;;10.20;8.50;;;;;;;;;;4993083;28;20171;-70
2023/09/17 02:02:46;;;;;;;13.00;9.80;;;;;;;;;;4995376;28;20233;-70
2023/09/17 02:07:39;;;;;;;11.48;10.00;;;;;;;;;;4992043;28;20216;-66
2023/09/17 02:10:04;;;;;;;10.13;8.45;;;;;;;;;;4992306;28;20568;-66
2023/09/17 02:12:30;;;;;;;13.50;10.32;;;;;;;;;;4989845;28;20238;-65
2023/09/17 02:14:55;;;;;;;11.10;9.40;;;;;;;;;;4992828;28;20200;-66
2023/09/17 02:17:21;;;;;;;11.85;9.38;;;;;;;;;;4986560;28;20547;-67
2023/09/17 02:19:47;;;;;;;11.43;10.23;;;;;;;;;;4991930;28;20176;-66
2023/09/17 02:22:12;;;;;;;10.52;8.70;;;;;;;;;;4993844;28;20182;-66
2023/09/17 02:24:37;;;;;;;18.10;10.52;;;;;;;;;;4992861;28;20191;-65
2023/09/17 02:27:02;;;;;;;11.55;10.32;;;;;;;;;;4981390;28;20652;-67
2023/09/17 02:29:28;;;;;;;14.00;10.10;;;;;;;;;;4988060;28;20191;-67
2023/09/17 02:31:54;;;;;;;13.82;10.48;;;;;;;;;;4993085;28;20618;-67
2023/09/17 02:34:19;;;;;;;14.27;10.52;;;;;;;;;;4991908;28;20204;-67
2023/09/17 02:36:44;;;;;;;14.30;10.88;;;;;;;;;;4993250;28;20665;-66
2023/09/17 02:39:09;;;;;;;17.17;12.05;;;;;;;;;;4992626;28;20659;-68
2023/09/17 02:41:35;;;;;;;13.93;10.60;;;;;;;;;;4990859;28;20701;-68
2023/09/17 02:44:00;;;;;;;17.00;12.38;;;;;;;;;;4992997;28;20171;-67
2023/09/17 02:46:25;;;;;;;13.25;11.85;;;;;;;;;;4987739;28;20178;-66
2023/09/17 02:48:53;;;;;;;13.82;12.25;;;;;;;;;;4981547;28;20230;-65
2023/09/17 02:51:18;;;;;;;17.88;13.30;;;;;;;;;;4989413;28;20176;-67
2023/09/17 02:53:44;;;;;;;18.95;13.48;;;;;;;;;;4993057;28;20186;-66
2023/09/17 02:56:09;;;;;;;15.13;12.63;;;;;;;;;;4990361;28;20199;-69
2023/09/17 02:58:35;;;;;;;16.02;12.63;;;;;;;;;;4989952;28;20666;-67
2023/09/17 03:01:04;;;;;;;15.10;12.40;;;;;;;;;;4989388;28;20647;-67
2023/09/17 03:03:29;;;;;;;16.67;14.05;;;;;;;;;;5006591;28;20179;-67
2023/09/17 03:05:56;;;;;;;18.05;13.63;;;;;;;;;;4978268;28;20234;-66
2023/09/17 03:08:22;;;;;;;17.73;15.13;;;;;;;;;;4987634;28;20230;-66
2023/09/17 03:10:56;;;;;;;18.98;14.77;;;;;;;;;;4988507;28;20184;-68
2023/09/17 03:13:22;;;;;;;20.35;15.02;;;;;;;;;;4990450;28;20198;-66
2023/09/17 03:15:47;;;;;;;17.02;14.55;;;;;;;;;;4987806;28;20207;-67
2023/09/17 03:18:12;;;;;;;20.52;15.85;;;;;;;;;;4988839;28;20203;-67
2023/09/17 03:20:38;;;;;;;18.42;15.13;;;;;;;;;;4985157;28;20200;-67
2023/09/17 03:23:04;;;;;;;20.75;16.27;;;;;;;;;;4975923;28;20230;-67
2023/09/17 03:25:33;;;;;;;22.20;16.80;;;;;;;;;;4986315;28;20199;-67
2023/09/17 03:28:01;;;;;;;22.40;16.63;;;;;;;;;;4989356;28;20186;-68
2023/09/17 03:30:26;;;;;;;22.30;17.02;;;;;;;;;;4989116;28;20188;-67
2023/09/17 03:32:52;;;;;;;22.00;17.25;;;;;;;;;;4988112;28;20179;-67
2023/09/17 03:35:17;;;;;;;21.27;17.88;;;;;;;;;;4981283;28;20207;-67
2023/09/17 03:37:43;;;;;;;24.15;19.10;;;;;;;;;;4987374;28;20287;-67
2023/09/17 03:40:10;;;;;;;22.35;18.70;;;;;;;;;;4977051;28;20643;-67
2023/09/17 03:42:35;;;;;;;24.73;18.83;;;;;;;;;;4983860;28;20201;-68
2023/09/17 03:45:01;;;;;;;25.00;18.70;;;;;;;;;;4986411;28;20726;-67
2023/09/17 03:47:27;;;;;;;22.77;17.90;;;;;;;;;;4983104;28;20558;-67
2023/09/17 03:49:52;;;;;;;24.98;19.35;;;;;;;;;;4981908;28;20202;-67
2023/09/17 03:52:17;;;;;;;30.15;19.67;;;;;;;;;;4989676;28;20180;-68
2023/09/17 03:54:43;;;;;;;24.48;18.80;;;;;;;;;;4989334;28;20207;-68
2023/09/17 03:57:08;;;;;;;24.27;19.98;;;;;;;;;;4983247;28;20191;-67
2023/09/17 03:59:34;;;;;;;23.65;18.98;;;;;;;;;;4983418;28;20222;-67
2023/09/17 04:01:59;;;;;;;25.40;17.88;;;;;;;;;;4987067;28;20201;-67
2023/09/17 04:04:24;;;;;;;25.08;19.10;;;;;;;;;;4990128;28;20281;-68
2023/09/17 04:06:49;;;;;;;21.02;18.38;;;;;;;;;;4982794;28;20188;-67
2023/09/17 04:09:14;;;;;;;22.42;17.83;;;;;;;;;;4988229;28;20266;-67
2023/09/17 04:11:40;;;;;;;21.77;17.70;;;;;;;;;;4988107;28;20647;-66
2023/09/17 04:14:07;;;;;;;26.50;19.92;;;;;;;;;;4991342;28;20226;-66
2023/09/17 04:16:32;;;;;;;24.27;19.00;;;;;;;;;;4988414;28;20558;-68
2023/09/17 04:18:57;;;;;;;25.17;19.70;;;;;;;;;;4990261;28;20199;-68
2023/09/17 04:21:22;;;;;;;21.42;16.95;;;;;;;;;;4987169;28;20706;-68
2023/09/17 04:23:48;;;;;;;21.98;16.77;;;;;;;;;;4984353;28;20666;-67
2023/09/17 04:26:13;;;;;;;22.42;17.17;;;;;;;;;;4982576;28;20199;-68
2023/09/17 04:28:38;;;;;;;20.50;16.02;;;;;;;;;;4986831;28;20186;-67
2023/09/17 04:31:04;;;;;;;22.50;16.83;;;;;;;;;;4991113;28;20187;-67
2023/09/17 04:33:29;;;;;;;24.52;18.05;;;;;;;;;;4990695;28;20183;-67
2023/09/17 04:35:55;;;;;;;21.67;17.23;;;;;;;;;;4990979;28;20195;-68
2023/09/17 04:38:20;;;;;;;19.52;16.25;;;;;;;;;;4990266;28;20214;-67
2023/09/17 04:40:45;;;;;;;19.98;15.57;;;;;;;;;;4984531;28;20242;-68
2023/09/17 04:43:10;;;;;;;19.63;15.38;;;;;;;;;;4979907;28;20187;-68
2023/09/17 04:45:38;;;;;;;17.30;15.13;;;;;;;;;;4991181;28;20205;-67
2023/09/17 04:48:04;;;;;;;17.85;14.00;;;;;;;;;;4989557;28;20187;-67
2023/09/17 04:50:30;;;;;;;16.98;14.20;;;;;;;;;;4988544;28;20183;-67
2023/09/17 04:52:55;;;;;;;17.25;15.43;;;;;;;;;;4987272;28;20183;-67
2023/09/17 04:55:20;;;;;;;18.25;14.77;;;;;;;;;;4985600;28;20200;-67
2023/09/17 04:57:46;;;;;;;15.48;12.80;;;;;;;;;;4986207;28;20219;-67
2023/09/17 05:00:11;;;;;;;18.52;12.75;;;;;;;;;;4986562;28;20183;-67
2023/09/17 05:02:39;;;;;;;18.33;12.52;;;;;;;;;;4983571;28;20571;-67
2023/09/17 05:05:09;;;;;;;16.27;12.77;;;;;;;;;;4982874;28;20196;-67
2023/09/17 05:07:36;;;;;;;15.10;12.55;;;;;;;;;;5003185;28;20204;-68
2023/09/17 05:10:01;;;;;;;14.75;12.10;;;;;;;;;;4987571;28;20211;-67
2023/09/17 05:12:27;;;;;;;17.80;12.02;;;;;;;;;;4986991;28;20171;-67
2023/09/17 05:14:52;;;;;;;18.92;12.38;;;;;;;;;;4982448;28;20721;-67
2023/09/17 05:17:17;;;;;;;14.88;11.73;;;;;;;;;;4990629;28;20184;-67
2023/09/17 05:19:43;;;;;;;13.80;12.02;;;;;;;;;;4986617;28;20200;-66
2023/09/17 05:22:08;;;;;;;16.58;12.85;;;;;;;;;;4983739;28;20237;-67
2023/09/17 05:24:33;;;;;;;15.27;11.82;;;;;;;;;;4983415;28;20238;-68
2023/09/17 05:26:58;;;;;;;16.50;13.20;;;;;;;;;;4986753;28;20176;-69
2023/09/17 05:29:23;;;;;;;16.48;12.73;;;;;;;;;;4982807;28;20196;-69
2023/09/17 05:31:49;;;;;;;16.15;13.05;;;;;;;;;;4986074;28;20199;-68
2023/09/17 05:34:14;;;;;;;17.02;13.88;;;;;;;;;;4983230;28;20222;-68
2023/09/17 05:36:39;;;;;;;18.38;13.30;;;;;;;;;;4977092;28;20226;-68
2023/09/17 05:39:06;;;;;;;20.55;14.18;;;;;;;;;;4988658;28;20200;-69
2023/09/17 05:41:31;;;;;;;18.83;14.65;;;;;;;;;;4990331;28;20326;-69
2023/09/17 05:43:56;;;;;;;21.40;14.68;;;;;;;;;;4992873;28;20258;-69
2023/09/17 05:46:22;;;;;;;19.08;14.98;;;;;;;;;;4991864;28;20287;-68
2023/09/17 05:48:47;;;;;;;20.83;15.63;;;;;;;;;;4988529;28;20183;-69
2023/09/17 05:51:12;;;;;;;20.88;15.27;;;;;;;;;;4988330;28;20647;-69
2023/09/17 05:53:37;;;;;;;20.52;14.13;;;;;;;;;;4989856;28;20265;-70
2023/09/17 05:56:04;;;;;;;21.60;15.48;;;;;;;;;;4991109;28;20208;-68
2023/09/17 05:58:29;;;;;;;20.25;14.20;;;;;;;;;;4987970;28;20199;-69
2023/09/17 06:00:54;;;;;;;24.08;16.45;;;;;;;;;;4979098;28;20176;-69
2023/09/17 06:03:20;;;;;;;22.05;16.90;;;;;;;;;;4987020;28;20620;-68
2023/09/17 06:05:45;;;;;;;26.25;18.40;;;;;;;;;;4982635;28;20228;-68
2023/09/17 06:08:10;;;;;;;23.73;17.98;;;;;;;;;;4987454;28;20551;-67
2023/09/17 06:10:35;;;;;;;23.60;17.23;;;;;;;;;;4984184;28;20685;-68
2023/09/17 06:13:01;;;;;;;27.23;17.40;;;;;;;;;;4989846;28;20278;-67
2023/09/17 06:15:26;;;;;;;24.88;18.58;;;;;;;;;;4991954;28;20203;-70
2023/09/17 06:17:51;;;;;;;27.23;19.08;;;;;;;;;;4992574;28;20251;-68
2023/09/17 06:20:17;;;;;;;23.58;18.85;;;;;;;;;;4989404;28;20269;-67
2023/09/17 06:22:43;;;;;;;24.45;18.92;;;;;;;;;;4992568;28;20176;-68
2023/09/17 06:25:08;;;;;;;23.50;17.80;;;;;;;;;;4991959;28;20202;-67
2023/09/17 06:27:34;;;;;;;25.67;18.73;;;;;;;;;;4991277;28;20254;-69
2023/09/17 06:30:00;;;;;;;25.63;19.85;;;;;;;;;;4992604;28;20255;-67
2023/09/17 06:32:25;;;;;;;25.08;18.33;;;;;;;;;;4993287;28;20255;-68
2023/09/17 06:34:50;;;;;;;26.38;19.20;;;;;;;;;;4991813;28;20548;-68
2023/09/17 06:37:15;;;;;;;27.65;19.88;;;;;;;;;;4991983;28;20176;-68
2023/09/17 06:39:41;;;;;;;29.25;21.20;;;;;;;;;;4991686;28;20383;-68
2023/09/17 06:42:07;;;;;;;27.45;19.52;;;;;;;;;;4992646;28;20175;-67
2023/09/17 06:44:32;;;;;;;27.08;19.38;;;;;;;;;;4990366;28;20227;-68
2023/09/17 06:46:57;;;;;;;29.45;19.27;;;;;;;;;;4992354;28;20558;-69
2023/09/17 06:49:22;;;;;;;27.88;19.38;;;;;;;;;;4993245;28;20179;-68
2023/09/17 06:51:48;;;;;;;29.92;20.38;;;;;;;;;;4989228;28;20392;-68
2023/09/17 06:54:14;;;;;;;27.73;18.05;;;;;;;;;;4985661;28;20180;-68
2023/09/17 06:56:39;;;;;;;28.63;20.10;;;;;;;;;;4987311;28;20179;-68
2023/09/17 06:59:05;;;;;;;31.30;19.58;;;;;;;;;;4991117;28;20637;-68
2023/09/17 07:01:30;;;;;;;25.25;18.90;;;;;;;;;;4985075;28;20191;-68
2023/09/17 07:03:56;;;;;;;27.50;19.10;;;;;;;;;;4986516;28;20179;-67
2023/09/17 07:06:21;;;;;;;31.25;19.90;;;;;;;;;;4989145;28;20297;-67
2023/09/17 07:08:46;;;;;;;30.08;21.33;;;;;;;;;;4989617;28;20206;-68
2023/09/17 07:11:12;;;;;;;29.73;20.08;;;;;;;;;;4990822;28;20564;-67
2023/09/17 07:13:38;;;;;;;25.38;17.70;;;;;;;;;;4986521;28;20226;-67
2023/09/17 07:16:04;;;;;;;27.73;17.88;;;;;;;;;;4988190;28;20200;-67
2023/09/17 07:18:31;;;;;;;25.00;19.33;;;;;;;;;;4984594;28;20207;-68
2023/09/17 07:20:56;;;;;;;23.27;17.77;;;;;;;;;;4987264;28;20172;-68
2023/09/17 07:23:22;;;;;;;25.50;19.10;;;;;;;;;;4992206;28;20383;-67
2023/09/17 07:25:47;;;;;;;25.58;18.17;;;;;;;;;;4990640;28;20219;-68
2023/09/17 07:28:12;;;;;;;25.23;18.65;;;;;;;;;;4992303;28;20180;-68
2023/09/17 07:30:38;;;;;;;27.88;18.65;;;;;;;;;;4992277;28;20175;-67
2023/09/17 07:33:04;;;;;;;26.10;18.67;;;;;;;;;;4992512;28;20267;-66
2023/09/17 07:35:29;;;;;;;26.25;19.00;;;;;;;;;;4983955;28;20227;-68
2023/09/17 07:37:54;;;;;;;30.40;19.63;;;;;;;;;;4990444;28;20266;-69
2023/09/17 07:40:20;;;;;;;24.77;18.35;;;;;;;;;;5003523;28;20187;-67
2023/09/17 07:42:45;;;;;;;26.35;17.33;;;;;;;;;;4988566;28;20543;-69
2023/09/17 07:45:12;;;;;;;26.33;18.67;;;;;;;;;;4990987;28;20199;-68
2023/09/17 07:47:38;;;;;;;25.65;18.17;;;;;;;;;;4988445;28;20180;-67
2023/09/17 07:50:03;;;;;;;28.92;20.15;;;;;;;;;;4989025;28;20175;-67
2023/09/17 07:52:29;;;;;;;28.77;19.48;;;;;;;;;;4985915;28;20172;-68
2023/09/17 07:54:54;;;;;;;26.25;18.77;;;;;;;;;;4985231;28;20612;-69
2023/09/17 07:57:19;;;;;;;29.58;19.80;;;;;;;;;;4987431;28;20190;-68
2023/09/17 07:59:47;;;;;;;26.33;17.52;;;;;;;;;;4986785;28;20200;-67
2023/09/17 08:02:12;;;;;;;28.30;18.63;;;;;;;;;;4989182;28;20176;-68
2023/09/17 08:04:37;;;;;;;25.05;17.88;;;;;;;;;;4989446;28;20204;-68
2023/09/17 08:07:02;;;;;;;23.05;17.80;;;;;;;;;;5015229;23;20304;-73
2023/09/17 08:09:29;;;;;;;24.67;16.45;;;;;;;;;;5012265;28;20194;-72
2023/09/17 08:11:54;;;;;;;20.52;16.30;;;;;;;;;;5007053;28;20320;-72
2023/09/17 08:14:22;;;;;;;22.67;16.98;;;;;;;;;;5011178;28;20685;-72
2023/09/17 08:16:47;;;;;;;22.27;16.38;;;;;;;;;;4996952;28;20568;-72
2023/09/17 08:19:12;;;;;;;23.13;16.83;;;;;;;;;;4982977;28;20214;-72
2023/09/17 08:21:38;;;;;;;22.63;15.90;;;;;;;;;;4988810;28;20663;-72
2023/09/17 08:24:03;;;;;;;18.88;14.20;;;;;;;;;;4988683;28;20173;-72
2023/09/17 08:26:28;;;;;;;18.25;13.85;;;;;;;;;;4990521;28;20203;-72
2023/09/17 08:28:55;;;;;;;18.52;14.15;;;;;;;;;;4992081;28;20254;-72
2023/09/17 08:31:24;;;;;;;16.95;13.70;;;;;;;;;;4989219;28;20211;-72
2023/09/17 08:33:50;;;;;;;20.17;13.82;;;;;;;;;;4993707;28;20552;-72
2023/09/17 08:36:15;;;;;;;16.15;13.02;;;;;;;;;;4991870;28;20278;-72
2023/09/17 08:38:41;;;;;;;15.88;12.48;;;;;;;;;;4992359;28;20576;-72
2023/09/17 08:41:06;;;;;;;14.25;11.43;;;;;;;;;;4993194;28;20265;-72
2023/09/17 08:43:32;;;;;;;15.35;12.38;;;;;;;;;;4989613;28;20638;-72
2023/09/17 08:45:59;;;;;;;16.45;11.75;;;;;;;;;;4990557;28;20207;-71
2023/09/17 08:48:24;;;;;;;15.23;12.48;;;;;;;;;;4993654;28;20176;-71
2023/09/17 08:50:50;;;;;;;14.60;12.15;;;;;;;;;;4993768;28;20665;-71
2023/09/17 08:53:19;;;;;;;15.82;11.50;;;;;;;;;;4990750;28;20188;-71
2023/09/17 08:55:47;;;;;;;16.10;11.57;;;;;;;;;;4985212;28;20278;-71
2023/09/17 08:58:15;;;;;;;14.55;12.25;;;;;;;;;;4991554;28;20199;-71
2023/09/17 09:00:44;;;;;;;13.70;11.93;;;;;;;;;;4991663;28;20192;-71
2023/09/17 09:03:12;;;;;;;14.75;11.48;;;;;;;;;;4992179;28;20663;-71
2023/09/17 09:05:39;;;;;;;15.68;12.85;;;;;;;;;;4990582;28;20203;-71
2023/09/17 09:08:04;;;;;;;15.85;12.82;;;;;;;;;;4990594;28;20241;-71
2023/09/17 09:10:30;;;;;;;13.98;11.75;;;;;;;;;;4994373;28;20185;-71
2023/09/17 09:12:56;;;;;;;12.60;10.65;;;;;;;;;;4996377;28;20183;-71
2023/09/17 09:15:21;;;;;;;15.15;11.77;;;;;;;;;;4996553;28;20175;-71
2023/09/17 09:17:47;;;;;;;17.88;11.75;;;;;;;;;;4996532;28;20658;-71
2023/09/17 09:20:14;;;;;;;15.48;12.23;;;;;;;;;;4981122;28;20780;-72
2023/09/17 09:22:40;;;;;;;16.80;12.52;;;;;;;;;;4991847;28;20191;-71
2023/09/17 09:25:09;;;;;;;16.05;12.63;;;;;;;;;;4990600;28;20698;-71
2023/09/17 09:27:36;;;;;;;13.20;10.95;;;;;;;;;;4990425;28;20203;-71
2023/09/17 09:30:03;;;;;;;17.83;11.52;;;;;;;;;;4995462;28;20291;-71
2023/09/17 09:32:30;;;;;;;13.88;11.90;;;;;;;;;;4992425;28;20180;-71
2023/09/17 09:34:55;;;;;;;15.43;12.18;;;;;;;;;;4995375;28;20186;-71
2023/09/17 09:37:23;;;;;;;15.43;12.20;;;;;;;;;;4994338;28;20270;-71
2023/09/17 09:39:48;;;;;;;18.42;13.10;;;;;;;;;;4994182;28;20215;-71
2023/09/17 09:42:14;;;;;;;16.92;12.48;;;;;;;;;;4990597;28;20179;-70
2023/09/17 09:44:39;;;;;;;17.48;12.45;;;;;;;;;;4991986;28;20203;-71
2023/09/17 09:47:04;;;;;;;16.77;13.52;;;;;;;;;;4991664;28;20599;-71
2023/09/17 09:49:38;;;;;;;15.57;12.73;;;;;;;;;;4994123;28;20626;-71
2023/09/17 09:52:04;;;;;;;16.73;13.30;;;;;;;;;;4991794;28;20561;-71
2023/09/17 09:54:29;;;;;;;19.00;14.88;;;;;;;;;;4991301;28;20267;-70
2023/09/17 09:56:54;;;;;;;17.77;13.07;;;;;;;;;;4995204;28;20195;-70
2023/09/17 09:59:20;;;;;;;19.40;14.15;;;;;;;;;;4993332;28;20265;-70
2023/09/17 10:01:45;;;;;;;18.55;15.30;;;;;;;;;;4995070;28;20647;-70
2023/09/17 10:04:11;;;;;;;20.02;15.45;;;;;;;;;;4994470;28;20534;-70
2023/09/17 10:06:40;;;;;;;21.75;15.05;;;;;;;;;;4991426;28;20211;-70
2023/09/17 10:09:12;;;;;;;19.40;15.40;;;;;;;;;;4990637;28;20184;-70
2023/09/17 10:11:38;;;;;;;21.73;15.52;;;;;;;;;;4990121;28;20180;-70
2023/09/17 10:14:04;;;;;;;19.50;15.23;;;;;;;;;;4992574;28;20176;-71
2023/09/17 10:16:30;;;;;;;17.65;14.50;;;;;;;;;;4992540;28;20210;-70
2023/09/17 10:18:56;;;;;;;22.65;15.93;;;;;;;;;;4989427;28;20200;-70
2023/09/17 10:21:21;;;;;;;21.80;15.38;;;;;;;;;;4994312;28;20172;-70
2023/09/17 10:23:47;;;;;;;21.60;15.50;;;;;;;;;;4994483;28;20569;-71
2023/09/17 10:26:13;;;;;;;18.15;14.52;;;;;;;;;;4993643;28;20203;-70
2023/09/17 10:28:38;;;;;;;20.90;15.60;;;;;;;;;;4988033;28;20238;-70
2023/09/17 10:31:04;;;;;;;20.73;15.23;;;;;;;;;;4994384;28;20175;-70
2023/09/17 10:33:29;;;;;;;19.33;14.70;;;;;;;;;;4994022;28;20179;-70
2023/09/17 10:35:56;;;;;;;22.50;15.45;;;;;;;;;;4993052;28;20208;-70
2023/09/17 10:38:22;;;;;;;20.95;15.70;;;;;;;;;;4992626;28;20187;-70
2023/09/17 10:40:48;;;;;;;22.20;16.13;;;;;;;;;;4993691;28;20172;-70
2023/09/17 10:43:15;;;;;;;20.27;14.38;;;;;;;;;;4988216;28;20551;-70
2023/09/17 10:45:42;;;;;;;21.50;15.68;;;;;;;;;;4993163;28;20746;-69
2023/09/17 10:48:08;;;;;;;18.42;14.30;;;;;;;;;;4992830;28;20674;-70
2023/09/17 10:50:36;;;;;;;22.25;15.52;;;;;;;;;;4994531;28;20627;-70
2023/09/17 10:53:02;;;;;;;21.83;15.77;;;;;;;;;;4994014;28;20207;-69
2023/09/17 10:55:30;;;;;;;23.55;16.63;;;;;;;;;;4993160;28;20250;-70
2023/09/17 10:58:04;;;;;;;29.33;19.08;;;;;;;;;;4992406;28;20243;-70
2023/09/17 11:00:31;;;;;;;26.25;17.90;;;;;;;;;;4984430;28;20214;-70
2023/09/17 11:02:59;;;;;;;28.15;17.17;;;;;;;;;;4988205;28;20180;-70
2023/09/17 11:05:27;;;;;;;29.75;17.98;;;;;;;;;;4990831;28;20175;-69
2023/09/17 11:07:53;;;;;;;25.88;17.63;;;;;;;;;;4994546;28;20172;-69
2023/09/17 11:10:19;;;;;;;25.20;17.73;;;;;;;;;;4987067;28;20180;-69
2023/09/17 11:12:46;;;;;;;28.05;19.25;;;;;;;;;;4989652;28;20234;-69
2023/09/17 11:15:11;;;;;;;29.35;18.17;;;;;;;;;;4991212;28;20198;-69
2023/09/17 11:17:37;;;;;;;27.92;18.20;;;;;;;;;;4991173;28;20196;-69
2023/09/17 11:20:09;;;;;;;26.73;17.58;;;;;;;;;;4993812;28;20209;-69
2023/09/17 11:22:35;;;;;;;36.33;18.88;;;;;;;;;;4989231;28;20203;-69
2023/09/17 11:25:01;;;;;;;29.73;18.63;;;;;;;;;;5006936;28;20210;-70
2023/09/17 11:27:47;;;;;;;25.98;18.70;;;;;;;;;;4990193;28;20634;-69
2023/09/17 11:30:16;;;;;;;27.80;16.88;;;;;;;;;;4983141;28;20191;-69
2023/09/17 11:32:49;;;;;;;31.63;19.42;;;;;;;;;;4987525;28;20214;-69
2023/09/17 11:35:15;;;;;;;28.45;18.27;;;;;;;;;;4990375;28;20184;-69
2023/09/17 11:37:40;;;;;;;28.17;18.95;;;;;;;;;;5006449;28;20206;-69
2023/09/17 11:40:06;;;;;;;29.58;18.38;;;;;;;;;;4991357;28;20659;-69
2023/09/17 11:42:33;;;;;;;26.95;17.92;;;;;;;;;;4988719;28;20258;-69
2023/09/17 11:44:59;;;;;;;28.73;17.95;;;;;;;;;;4987404;28;20172;-69
2023/09/17 11:47:25;;;;;;;24.10;17.00;;;;;;;;;;4981429;28;20200;-69
2023/09/17 11:49:50;;;;;;;30.98;19.33;;;;;;;;;;4983265;28;20243;-69
2023/09/17 11:52:15;;;;;;;27.42;20.10;;;;;;;;;;4991043;28;20207;-68
2023/09/17 11:54:52;;;;;;;28.00;19.40;;;;;;;;;;5057108;28;20877;-69
2023/09/17 11:57:21;;;;;;;26.10;19.38;;;;;;;;;;5047273;28;20752;-69
2023/09/17 11:59:46;;;;;;;28.20;19.52;;;;;;;;;;5052358;28;20174;-69
2023/09/17 12:02:12;;;;;;;21.95;16.35;;;;;;;;;;5054019;28;20184;-70
2023/09/17 12:04:37;;;;;;;24.70;18.58;;;;;;;;;;5052433;28;20264;-67
2023/09/17 12:07:07;;;;;;;32.17;19.40;;;;;;;;;;5026934;22;20325;-67
2023/09/17 12:12:05;;;;;;;28.65;19.85;;;;;;;;;;5016240;28;20179;-67
2023/09/17 12:14:31;;;;;;;28.45;19.20;;;;;;;;;;4993502;28;20260;-66
2023/09/17 12:16:56;;;;;;;27.38;18.38;;;;;;;;;;5000543;28;20195;-66
2023/09/17 12:19:22;;;;;;;29.45;17.90;;;;;;;;;;4997002;28;20179;-66
2023/09/17 12:21:48;;;;;;;28.98;18.63;;;;;;;;;;5005447;28;20207;-66
2023/09/17 12:24:20;;;;;;;27.48;20.60;;;;;;;;;;5003987;28;20186;-65
2023/09/17 12:26:58;;;;;;;26.05;18.83;;;;;;;;;;5011397;28;20195;-65
2023/09/17 12:29:24;;;;;;;32.85;18.50;;;;;;;;;;5006811;28;20210;-66
2023/09/17 12:31:49;;;;;;;26.67;17.92;;;;;;;;;;5004123;28;20229;-67
2023/09/17 12:34:17;;;;;;;30.65;18.90;;;;;;;;;;5005601;28;20218;-67
2023/09/17 12:36:43;;;;;;;27.80;19.15;;;;;;;;;;5003784;28;20230;-67
2023/09/17 12:39:08;;;;;;;28.75;18.50;;;;;;;;;;5006297;28;20662;-66
2023/09/17 12:41:33;;;;;;;30.75;18.00;;;;;;;;;;5006175;28;20179;-66
2023/09/17 12:43:58;;;;;;;25.52;18.23;;;;;;;;;;5006286;28;20545;-67
2023/09/17 12:46:24;;;;;;;29.63;18.33;;;;;;;;;;5006455;28;20195;-66
2023/09/17 12:48:49;;;;;;;26.58;19.08;;;;;;;;;;5004861;28;20179;-67
2023/09/17 12:51:15;;;;;;;27.30;18.60;;;;;;;;;;5020410;28;20179;-66
2023/09/17 12:53:42;;;;;;;26.50;16.70;;;;;;;;;;5006865;28;20286;-66
2023/09/17 12:56:08;;;;;;;30.30;19.13;;;;;;;;;;5004186;28;20203;-66
2023/09/17 12:58:34;;;;;;;32.03;19.38;;;;;;;;;;5005655;28;20179;-68
2023/09/17 13:01:05;;;;;;;29.60;19.25;;;;;;;;;;5004647;28;20187;-66
2023/09/17 13:03:31;;;;;;;26.88;16.60;;;;;;;;;;4999349;28;20588;-67
2023/09/17 13:05:57;;;;;;;33.85;18.65;;;;;;;;;;4993820;28;20216;-67
2023/09/17 13:08:24;;;;;;;31.05;18.83;;;;;;;;;;4991050;28;20180;-66
2023/09/17 13:10:49;;;;;;;26.02;18.05;;;;;;;;;;4993531;28;20175;-66
2023/09/17 13:13:15;;;;;;;28.58;19.27;;;;;;;;;;4989414;28;20208;-66
2023/09/17 13:15:41;;;;;;;28.88;16.70;;;;;;;;;;4991059;28;20301;-66
2023/09/17 13:18:07;;;;;;;25.88;17.83;;;;;;;;;;4992288;28;20667;-67
2023/09/17 13:20:32;;;;;;;30.70;18.65;;;;;;;;;;4991577;28;20184;-67
2023/09/17 13:22:58;;;;;;;28.42;17.27;;;;;;;;;;4991895;28;20201;-67
2023/09/17 13:25:23;;;;;;;30.20;18.48;;;;;;;;;;4992628;28;20214;-65
2023/09/17 13:27:48;;;;;;;29.10;18.67;;;;;;;;;;4992553;28;20180;-67
2023/09/17 13:30:15;;;;;;;30.08;17.77;;;;;;;;;;4989837;28;20211;-66
2023/09/17 13:32:41;;;;;;;24.17;16.20;;;;;;;;;;4992618;28;20226;-66
2023/09/17 13:35:10;;;;;;;23.80;15.43;;;;;;;;;;4992007;28;20239;-66
2023/09/17 13:37:38;;;;;;;22.48;14.93;;;;;;;;;;4990514;28;20188;-66
2023/09/17 13:40:07;;;;;;;24.10;16.02;;;;;;;;;;4992054;28;20896;-66
2023/09/17 13:42:32;;;;;;;24.30;15.30;;;;;;;;;;4988685;28;20262;-66
2023/09/17 13:44:57;;;;;;;20.20;13.32;;;;;;;;;;4990246;28;20711;-66
2023/09/17 13:47:23;;;;;;;22.38;14.30;;;;;;;;;;4990779;28;20171;-67
2023/09/17 13:49:48;;;;;;;21.60;14.13;;;;;;;;;;4992996;28;20175;-66
2023/09/17 13:52:13;;;;;;;23.13;13.90;;;;;;;;;;4992313;28;20192;-67
2023/09/17 13:54:38;;;;;;;21.45;13.07;;;;;;;;;;4992552;28;20222;-67
2023/09/17 13:57:04;;;;;;;27.02;13.68;;;;;;;;;;4991766;28;20299;-67
2023/09/17 13:59:29;;;;;;;22.63;12.98;;;;;;;;;;4991329;28;20180;-67
2023/09/17 14:01:54;;;;;;;24.10;14.27;;;;;;;;;;4991980;28;20206;-66
2023/09/17 14:04:20;;;;;;;20.02;12.65;;;;;;;;;;4992513;28;20267;-67
2023/09/17 14:06:45;;;;;;;20.77;12.15;;;;;;;;;;4991489;28;20223;-67
2023/09/17 14:09:10;;;;;;;22.95;14.20;;;;;;;;;;4990441;28;20222;-65
2023/09/17 14:11:36;;;;;;;23.77;13.47;;;;;;;;;;4990283;28;20238;-66
2023/09/17 14:14:01;;;;;;;23.10;14.20;;;;;;;;;;4991329;28;20453;-67
2023/09/17 14:16:26;;;;;;;23.60;14.48;;;;;;;;;;4990093;28;20230;-67
2023/09/17 14:18:51;;;;;;;28.05;15.60;;;;;;;;;;4991375;28;20234;-66